sensor_id;sensor_type;location;lat;lon;timestamp;P1;durP1;ratioP1;P2;durP2;ratioP2
42364;SDS011;28498;54.400;18.566;2023-05-07T00:01:36;14.70;;;8.88;;
42364;SDS011;28498;54.400;18.566;2023-05-07T00:04:03;13.35;;;7.82;;
42364;SDS011;28498;54.400;18.566;2023-05-07T00:06:31;16.40;;;7.30;;
42364;SDS011;28498;54.400;18.566;2023-05-07T00:08:59;16.35;;;7.85;;
42364;SDS011;28498;54.400;18.566;2023-05-07T00:11:27;12.18;;;7.15;;
42364;SDS011;28498;54.400;18.566;2023-05-07T00:13:54;13.02;;;7.25;;
42364;SDS011;28498;54.400;18.566;2023-05-07T00:16:21;11.20;;;6.20;;
42364;SDS011;28498;54.400;18.566;2023-05-07T00:18:48;13.07;;;6.30;;
42364;SDS011;28498;54.400;18.566;2023-05-07T00:21:15;12.48;;;6.85;;
42364;SDS011;28498;54.400;18.566;2023-05-07T00:23:42;17.73;;;7.47;;
42364;SDS011;28498;54.400;18.566;2023-05-07T00:26:09;14.23;;;7.90;;
42364;SDS011;28498;54.400;18.566;2023-05-07T00:28:36;14.80;;;7.13;;
42364;SDS011;28498;54.400;18.566;2023-05-07T00:31:03;11.13;;;6.68;;
42364;SDS011;28498;54.400;18.566;2023-05-07T00:33:30;11.27;;;7.03;;
42364;SDS011;28498;54.400;18.566;2023-05-07T00:35:57;13.27;;;7.35;;
42364;SDS011;28498;54.400;18.566;2023-05-07T00:38:24;13.80;;;8.10;;
42364;SDS011;28498;54.400;18.566;2023-05-07T00:40:51;14.07;;;7.72;;
42364;SDS011;28498;54.400;18.566;2023-05-07T00:43:18;13.65;;;6.50;;
42364;SDS011;28498;54.400;18.566;2023-05-07T00:45:45;14.95;;;6.28;;
42364;SDS011;28498;54.400;18.566;2023-05-07T00:48:12;11.27;;;6.25;;
42364;SDS011;28498;54.400;18.566;2023-05-07T00:50:40;13.43;;;6.82;;
42364;SDS011;28498;54.400;18.566;2023-05-07T00:53:07;12.15;;;7.10;;
42364;SDS011;28498;54.400;18.566;2023-05-07T00:55:35;11.68;;;6.82;;
42364;SDS011;28498;54.400;18.566;2023-05-07T00:58:03;14.57;;;6.20;;
42364;SDS011;28498;54.400;18.566;2023-05-07T01:00:30;14.10;;;7.20;;
42364;SDS011;28498;54.400;18.566;2023-05-07T01:02:57;10.73;;;6.43;;
42364;SDS011;28498;54.400;18.566;2023-05-07T01:05:25;13.77;;;8.00;;
42364;SDS011;28498;54.400;18.566;2023-05-07T01:07:54;13.90;;;6.88;;
42364;SDS011;28498;54.400;18.566;2023-05-07T01:10:22;14.27;;;6.80;;
42364;SDS011;28498;54.400;18.566;2023-05-07T01:12:50;16.77;;;6.80;;
42364;SDS011;28498;54.400;18.566;2023-05-07T01:15:18;13.73;;;7.40;;
42364;SDS011;28498;54.400;18.566;2023-05-07T01:17:45;12.80;;;6.63;;
42364;SDS011;28498;54.400;18.566;2023-05-07T01:20:13;20.70;;;7.22;;
42364;SDS011;28498;54.400;18.566;2023-05-07T01:22:40;14.23;;;7.20;;
42364;SDS011;28498;54.400;18.566;2023-05-07T01:25:09;13.20;;;6.45;;
42364;SDS011;28498;54.400;18.566;2023-05-07T01:27:36;12.75;;;6.82;;
42364;SDS011;28498;54.400;18.566;2023-05-07T01:30:04;12.57;;;6.18;;
42364;SDS011;28498;54.400;18.566;2023-05-07T01:32:38;18.02;;;8.02;;
42364;SDS011;28498;54.400;18.566;2023-05-07T01:35:10;15.23;;;7.35;;
42364;SDS011;28498;54.400;18.566;2023-05-07T01:37:40;15.88;;;6.97;;
42364;SDS011;28498;54.400;18.566;2023-05-07T01:40:07;13.10;;;7.32;;
42364;SDS011;28498;54.400;18.566;2023-05-07T01:42:36;14.70;;;7.38;;
42364;SDS011;28498;54.400;18.566;2023-05-07T01:45:03;14.90;;;7.10;;
42364;SDS011;28498;54.400;18.566;2023-05-07T01:47:30;16.65;;;7.65;;
42364;SDS011;28498;54.400;18.566;2023-05-07T01:49:58;11.68;;;6.90;;
42364;SDS011;28498;54.400;18.566;2023-05-07T01:52:25;14.45;;;7.38;;
42364;SDS011;28498;54.400;18.566;2023-05-07T01:54:54;17.58;;;7.85;;
42364;SDS011;28498;54.400;18.566;2023-05-07T01:57:21;13.45;;;7.35;;
42364;SDS011;28498;54.400;18.566;2023-05-07T01:59:48;20.40;;;8.27;;
42364;SDS011;28498;54.400;18.566;2023-05-07T02:02:15;19.90;;;8.52;;
42364;SDS011;28498;54.400;18.566;2023-05-07T02:04:42;14.95;;;7.18;;
42364;SDS011;28498;54.400;18.566;2023-05-07T02:07:09;13.80;;;7.47;;
42364;SDS011;28498;54.400;18.566;2023-05-07T02:09:36;14.52;;;6.38;;
42364;SDS011;28498;54.400;18.566;2023-05-07T02:12:03;15.38;;;7.57;;
42364;SDS011;28498;54.400;18.566;2023-05-07T02:14:30;18.50;;;8.05;;
42364;SDS011;28498;54.400;18.566;2023-05-07T02:16:57;17.20;;;7.30;;
42364;SDS011;28498;54.400;18.566;2023-05-07T02:19:24;16.95;;;7.55;;
42364;SDS011;28498;54.400;18.566;2023-05-07T02:21:51;13.75;;;7.10;;
42364;SDS011;28498;54.400;18.566;2023-05-07T02:24:19;18.52;;;8.15;;
42364;SDS011;28498;54.400;18.566;2023-05-07T02:26:46;13.15;;;6.90;;
42364;SDS011;28498;54.400;18.566;2023-05-07T02:29:13;14.98;;;6.60;;
42364;SDS011;28498;54.400;18.566;2023-05-07T02:31:40;12.98;;;7.00;;
42364;SDS011;28498;54.400;18.566;2023-05-07T02:34:07;13.95;;;6.93;;
42364;SDS011;28498;54.400;18.566;2023-05-07T02:36:34;11.43;;;6.35;;
42364;SDS011;28498;54.400;18.566;2023-05-07T02:39:01;12.80;;;6.95;;
42364;SDS011;28498;54.400;18.566;2023-05-07T02:41:28;19.50;;;6.68;;
42364;SDS011;28498;54.400;18.566;2023-05-07T02:43:55;13.35;;;6.50;;
42364;SDS011;28498;54.400;18.566;2023-05-07T02:46:22;12.38;;;6.85;;
42364;SDS011;28498;54.400;18.566;2023-05-07T02:48:49;15.13;;;6.40;;
42364;SDS011;28498;54.400;18.566;2023-05-07T02:51:20;10.52;;;5.78;;
42364;SDS011;28498;54.400;18.566;2023-05-07T02:53:51;11.57;;;6.47;;
42364;SDS011;28498;54.400;18.566;2023-05-07T02:56:18;12.18;;;5.85;;
42364;SDS011;28498;54.400;18.566;2023-05-07T02:58:45;12.57;;;6.22;;
42364;SDS011;28498;54.400;18.566;2023-05-07T03:01:11;14.65;;;7.00;;
42364;SDS011;28498;54.400;18.566;2023-05-07T03:03:40;13.63;;;6.88;;
42364;SDS011;28498;54.400;18.566;2023-05-07T03:06:07;11.27;;;6.03;;
42364;SDS011;28498;54.400;18.566;2023-05-07T03:08:34;12.35;;;5.90;;
42364;SDS011;28498;54.400;18.566;2023-05-07T03:11:01;12.00;;;6.35;;
42364;SDS011;28498;54.400;18.566;2023-05-07T03:13:28;11.10;;;6.43;;
42364;SDS011;28498;54.400;18.566;2023-05-07T03:15:55;17.42;;;6.85;;
42364;SDS011;28498;54.400;18.566;2023-05-07T03:18:22;12.77;;;6.38;;
42364;SDS011;28498;54.400;18.566;2023-05-07T03:20:49;12.68;;;6.75;;
42364;SDS011;28498;54.400;18.566;2023-05-07T03:23:16;13.05;;;6.35;;
42364;SDS011;28498;54.400;18.566;2023-05-07T03:25:43;15.00;;;7.25;;
42364;SDS011;28498;54.400;18.566;2023-05-07T03:28:10;10.48;;;6.25;;
42364;SDS011;28498;54.400;18.566;2023-05-07T03:30:37;10.02;;;5.78;;
42364;SDS011;28498;54.400;18.566;2023-05-07T03:33:04;11.80;;;6.22;;
42364;SDS011;28498;54.400;18.566;2023-05-07T03:35:31;11.80;;;5.75;;
42364;SDS011;28498;54.400;18.566;2023-05-07T03:37:57;9.32;;;6.18;;
42364;SDS011;28498;54.400;18.566;2023-05-07T03:40:24;9.80;;;5.72;;
42364;SDS011;28498;54.400;18.566;2023-05-07T03:42:52;9.45;;;5.10;;
42364;SDS011;28498;54.400;18.566;2023-05-07T03:45:19;12.27;;;6.32;;
42364;SDS011;28498;54.400;18.566;2023-05-07T03:47:46;10.48;;;5.03;;
42364;SDS011;28498;54.400;18.566;2023-05-07T03:50:13;11.45;;;4.97;;
42364;SDS011;28498;54.400;18.566;2023-05-07T03:52:40;8.52;;;5.00;;
42364;SDS011;28498;54.400;18.566;2023-05-07T03:55:07;8.73;;;4.90;;
42364;SDS011;28498;54.400;18.566;2023-05-07T03:57:34;8.30;;;4.60;;
42364;SDS011;28498;54.400;18.566;2023-05-07T04:00:01;10.02;;;5.10;;
42364;SDS011;28498;54.400;18.566;2023-05-07T04:02:30;8.23;;;5.05;;
42364;SDS011;28498;54.400;18.566;2023-05-07T04:04:57;10.48;;;4.35;;
42364;SDS011;28498;54.400;18.566;2023-05-07T04:07:24;9.73;;;4.78;;
42364;SDS011;28498;54.400;18.566;2023-05-07T04:09:51;8.32;;;4.30;;
42364;SDS011;28498;54.400;18.566;2023-05-07T04:12:18;8.73;;;4.53;;
42364;SDS011;28498;54.400;18.566;2023-05-07T04:14:44;9.68;;;5.13;;
42364;SDS011;28498;54.400;18.566;2023-05-07T04:17:11;9.68;;;5.32;;
42364;SDS011;28498;54.400;18.566;2023-05-07T04:19:38;10.55;;;5.32;;
42364;SDS011;28498;54.400;18.566;2023-05-07T04:22:05;9.18;;;5.45;;
42364;SDS011;28498;54.400;18.566;2023-05-07T04:24:32;13.10;;;6.05;;
42364;SDS011;28498;54.400;18.566;2023-05-07T04:26:59;8.85;;;4.60;;
42364;SDS011;28498;54.400;18.566;2023-05-07T04:29:26;9.85;;;4.78;;
42364;SDS011;28498;54.400;18.566;2023-05-07T04:31:53;8.13;;;4.85;;
42364;SDS011;28498;54.400;18.566;2023-05-07T04:34:22;8.32;;;4.60;;
42364;SDS011;28498;54.400;18.566;2023-05-07T04:36:49;9.50;;;4.70;;
42364;SDS011;28498;54.400;18.566;2023-05-07T04:39:15;9.18;;;4.18;;
42364;SDS011;28498;54.400;18.566;2023-05-07T04:41:43;8.68;;;4.80;;
42364;SDS011;28498;54.400;18.566;2023-05-07T04:44:09;9.55;;;4.90;;
42364;SDS011;28498;54.400;18.566;2023-05-07T04:46:37;9.52;;;5.18;;
42364;SDS011;28498;54.400;18.566;2023-05-07T04:49:04;11.93;;;5.40;;
42364;SDS011;28498;54.400;18.566;2023-05-07T04:51:31;12.63;;;4.82;;
42364;SDS011;28498;54.400;18.566;2023-05-07T04:53:59;10.20;;;4.35;;
42364;SDS011;28498;54.400;18.566;2023-05-07T04:56:27;9.35;;;4.43;;
42364;SDS011;28498;54.400;18.566;2023-05-07T04:58:56;9.15;;;4.65;;
42364;SDS011;28498;54.400;18.566;2023-05-07T05:01:23;6.72;;;4.00;;
42364;SDS011;28498;54.400;18.566;2023-05-07T05:03:50;10.98;;;4.05;;
42364;SDS011;28498;54.400;18.566;2023-05-07T05:06:17;7.43;;;4.28;;
42364;SDS011;28498;54.400;18.566;2023-05-07T05:08:43;8.73;;;4.15;;
42364;SDS011;28498;54.400;18.566;2023-05-07T05:11:10;11.70;;;4.30;;
42364;SDS011;28498;54.400;18.566;2023-05-07T05:13:37;8.40;;;4.75;;
42364;SDS011;28498;54.400;18.566;2023-05-07T05:16:04;7.97;;;4.22;;
42364;SDS011;28498;54.400;18.566;2023-05-07T05:18:32;8.55;;;4.57;;
42364;SDS011;28498;54.400;18.566;2023-05-07T05:20:59;7.63;;;4.15;;
42364;SDS011;28498;54.400;18.566;2023-05-07T05:23:26;6.97;;;4.15;;
42364;SDS011;28498;54.400;18.566;2023-05-07T05:25:57;6.97;;;4.22;;
42364;SDS011;28498;54.400;18.566;2023-05-07T05:28:24;9.95;;;4.32;;
42364;SDS011;28498;54.400;18.566;2023-05-07T05:30:51;10.57;;;4.32;;
42364;SDS011;28498;54.400;18.566;2023-05-07T05:33:18;10.60;;;4.97;;
42364;SDS011;28498;54.400;18.566;2023-05-07T05:35:45;6.97;;;3.92;;
42364;SDS011;28498;54.400;18.566;2023-05-07T05:38:13;10.85;;;4.28;;
42364;SDS011;28498;54.400;18.566;2023-05-07T05:40:40;7.00;;;3.63;;
42364;SDS011;28498;54.400;18.566;2023-05-07T05:43:06;6.93;;;3.90;;
42364;SDS011;28498;54.400;18.566;2023-05-07T05:45:33;9.60;;;4.05;;
42364;SDS011;28498;54.400;18.566;2023-05-07T05:48:00;10.68;;;3.95;;
42364;SDS011;28498;54.400;18.566;2023-05-07T05:50:27;7.47;;;3.75;;
42364;SDS011;28498;54.400;18.566;2023-05-07T05:52:54;20.58;;;4.45;;
42364;SDS011;28498;54.400;18.566;2023-05-07T05:55:21;5.55;;;3.53;;
42364;SDS011;28498;54.400;18.566;2023-05-07T05:57:49;8.52;;;3.67;;
42364;SDS011;28498;54.400;18.566;2023-05-07T06:00:16;8.70;;;3.92;;
42364;SDS011;28498;54.400;18.566;2023-05-07T06:02:44;9.23;;;3.67;;
42364;SDS011;28498;54.400;18.566;2023-05-07T06:05:11;11.60;;;4.50;;
42364;SDS011;28498;54.400;18.566;2023-05-07T06:07:38;9.57;;;4.60;;
42364;SDS011;28498;54.400;18.566;2023-05-07T06:10:05;18.77;;;4.28;;
42364;SDS011;28498;54.400;18.566;2023-05-07T06:12:32;7.00;;;4.05;;
42364;SDS011;28498;54.400;18.566;2023-05-07T06:15:00;8.02;;;3.83;;
42364;SDS011;28498;54.400;18.566;2023-05-07T06:17:27;6.30;;;3.65;;
42364;SDS011;28498;54.400;18.566;2023-05-07T06:19:54;7.07;;;3.53;;
42364;SDS011;28498;54.400;18.566;2023-05-07T06:22:21;6.68;;;3.03;;
42364;SDS011;28498;54.400;18.566;2023-05-07T06:24:48;7.20;;;3.55;;
42364;SDS011;28498;54.400;18.566;2023-05-07T06:27:15;7.30;;;3.72;;
42364;SDS011;28498;54.400;18.566;2023-05-07T06:29:42;9.57;;;3.58;;
42364;SDS011;28498;54.400;18.566;2023-05-07T06:32:09;8.15;;;3.70;;
42364;SDS011;28498;54.400;18.566;2023-05-07T06:34:38;8.18;;;3.45;;
42364;SDS011;28498;54.400;18.566;2023-05-07T06:37:06;7.07;;;3.67;;
42364;SDS011;28498;54.400;18.566;2023-05-07T06:39:33;6.82;;;3.53;;
42364;SDS011;28498;54.400;18.566;2023-05-07T06:42:01;12.32;;;3.70;;
42364;SDS011;28498;54.400;18.566;2023-05-07T06:44:28;7.32;;;3.00;;
42364;SDS011;28498;54.400;18.566;2023-05-07T06:46:55;18.40;;;4.35;;
42364;SDS011;28498;54.400;18.566;2023-05-07T06:49:22;6.50;;;3.30;;
42364;SDS011;28498;54.400;18.566;2023-05-07T06:51:49;7.88;;;3.22;;
42364;SDS011;28498;54.400;18.566;2023-05-07T06:54:16;5.88;;;3.17;;
42364;SDS011;28498;54.400;18.566;2023-05-07T06:56:43;8.23;;;3.97;;
42364;SDS011;28498;54.400;18.566;2023-05-07T06:59:10;8.50;;;3.63;;
42364;SDS011;28498;54.400;18.566;2023-05-07T07:01:37;8.73;;;3.75;;
42364;SDS011;28498;54.400;18.566;2023-05-07T07:04:04;6.03;;;2.95;;
42364;SDS011;28498;54.400;18.566;2023-05-07T07:06:31;7.15;;;3.72;;
42364;SDS011;28498;54.400;18.566;2023-05-07T07:08:58;7.20;;;3.58;;
42364;SDS011;28498;54.400;18.566;2023-05-07T07:11:26;6.03;;;3.20;;
42364;SDS011;28498;54.400;18.566;2023-05-07T07:13:53;6.97;;;3.70;;
42364;SDS011;28498;54.400;18.566;2023-05-07T07:16:21;6.60;;;4.18;;
42364;SDS011;28498;54.400;18.566;2023-05-07T07:18:48;6.88;;;3.40;;
42364;SDS011;28498;54.400;18.566;2023-05-07T07:21:15;5.90;;;3.53;;
42364;SDS011;28498;54.400;18.566;2023-05-07T07:23:42;10.52;;;3.67;;
42364;SDS011;28498;54.400;18.566;2023-05-07T07:26:09;7.55;;;3.97;;
42364;SDS011;28498;54.400;18.566;2023-05-07T07:28:41;7.55;;;4.15;;
42364;SDS011;28498;54.400;18.566;2023-05-07T07:33:38;7.35;;;3.65;;
42364;SDS011;28498;54.400;18.566;2023-05-07T07:36:05;11.82;;;3.78;;
42364;SDS011;28498;54.400;18.566;2023-05-07T07:38:33;6.68;;;3.28;;
42364;SDS011;28498;54.400;18.566;2023-05-07T07:41:01;7.15;;;3.92;;
42364;SDS011;28498;54.400;18.566;2023-05-07T07:47:09;7.43;;;3.60;;
42364;SDS011;28498;54.400;18.566;2023-05-07T07:49:36;10.35;;;4.00;;
42364;SDS011;28498;54.400;18.566;2023-05-07T07:52:03;9.50;;;4.38;;
42364;SDS011;28498;54.400;18.566;2023-05-07T07:54:30;6.63;;;3.72;;
42364;SDS011;28498;54.400;18.566;2023-05-07T07:56:57;9.80;;;4.07;;
42364;SDS011;28498;54.400;18.566;2023-05-07T07:59:24;8.43;;;4.15;;
42364;SDS011;28498;54.400;18.566;2023-05-07T08:01:51;7.68;;;3.50;;
42364;SDS011;28498;54.400;18.566;2023-05-07T08:04:21;8.45;;;3.55;;
42364;SDS011;28498;54.400;18.566;2023-05-07T08:06:49;6.70;;;3.28;;
42364;SDS011;28498;54.400;18.566;2023-05-07T08:09:16;6.78;;;4.03;;
42364;SDS011;28498;54.400;18.566;2023-05-07T08:11:43;7.10;;;3.30;;
42364;SDS011;28498;54.400;18.566;2023-05-07T08:14:10;8.05;;;3.38;;
42364;SDS011;28498;54.400;18.566;2023-05-07T08:16:37;11.65;;;3.63;;
42364;SDS011;28498;54.400;18.566;2023-05-07T08:19:04;5.88;;;3.47;;
42364;SDS011;28498;54.400;18.566;2023-05-07T08:21:31;6.85;;;3.22;;
42364;SDS011;28498;54.400;18.566;2023-05-07T08:24:00;5.13;;;3.38;;
42364;SDS011;28498;54.400;18.566;2023-05-07T08:26:26;7.53;;;3.50;;
42364;SDS011;28498;54.400;18.566;2023-05-07T08:32:41;6.65;;;3.35;;
42364;SDS011;28498;54.400;18.566;2023-05-07T08:35:08;9.43;;;3.40;;
42364;SDS011;28498;54.400;18.566;2023-05-07T08:37:35;6.30;;;2.65;;
42364;SDS011;28498;54.400;18.566;2023-05-07T08:40:02;5.28;;;3.00;;
42364;SDS011;28498;54.400;18.566;2023-05-07T08:42:35;5.45;;;3.00;;
42364;SDS011;28498;54.400;18.566;2023-05-07T08:45:04;6.97;;;3.22;;
42364;SDS011;28498;54.400;18.566;2023-05-07T08:47:38;5.95;;;3.13;;
42364;SDS011;28498;54.400;18.566;2023-05-07T08:50:10;5.70;;;3.00;;
42364;SDS011;28498;54.400;18.566;2023-05-07T08:52:39;5.95;;;3.40;;
42364;SDS011;28498;54.400;18.566;2023-05-07T08:55:09;8.60;;;2.90;;
42364;SDS011;28498;54.400;18.566;2023-05-07T09:01:24;5.80;;;2.92;;
42364;SDS011;28498;54.400;18.566;2023-05-07T09:03:51;7.32;;;3.05;;
42364;SDS011;28498;54.400;18.566;2023-05-07T09:06:19;5.35;;;3.10;;
42364;SDS011;28498;54.400;18.566;2023-05-07T09:08:53;7.10;;;2.83;;
42364;SDS011;28498;54.400;18.566;2023-05-07T09:11:23;7.75;;;2.78;;
42364;SDS011;28498;54.400;18.566;2023-05-07T09:13:54;4.13;;;2.72;;
42364;SDS011;28498;54.400;18.566;2023-05-07T09:16:23;5.25;;;3.10;;
42364;SDS011;28498;54.400;18.566;2023-05-07T09:18:53;6.80;;;3.05;;
42364;SDS011;28498;54.400;18.566;2023-05-07T09:21:21;6.75;;;2.97;;
42364;SDS011;28498;54.400;18.566;2023-05-07T09:23:53;4.07;;;2.58;;
42364;SDS011;28498;54.400;18.566;2023-05-07T09:26:21;10.25;;;2.80;;
42364;SDS011;28498;54.400;18.566;2023-05-07T09:28:49;7.18;;;2.90;;
42364;SDS011;28498;54.400;18.566;2023-05-07T09:31:16;4.65;;;3.25;;
42364;SDS011;28498;54.400;18.566;2023-05-07T09:33:46;5.55;;;3.45;;
42364;SDS011;28498;54.400;18.566;2023-05-07T09:36:13;8.55;;;3.13;;
42364;SDS011;28498;54.400;18.566;2023-05-07T09:38:41;6.00;;;3.03;;
42364;SDS011;28498;54.400;18.566;2023-05-07T09:41:09;5.35;;;2.92;;
42364;SDS011;28498;54.400;18.566;2023-05-07T09:43:38;6.15;;;3.00;;
42364;SDS011;28498;54.400;18.566;2023-05-07T09:46:07;4.97;;;2.78;;
42364;SDS011;28498;54.400;18.566;2023-05-07T09:48:38;5.90;;;2.90;;
42364;SDS011;28498;54.400;18.566;2023-05-07T09:51:10;3.97;;;2.55;;
42364;SDS011;28498;54.400;18.566;2023-05-07T09:53:58;6.25;;;3.22;;
42364;SDS011;28498;54.400;18.566;2023-05-07T09:56:27;8.35;;;2.75;;
42364;SDS011;28498;54.400;18.566;2023-05-07T09:58:57;5.55;;;2.70;;
42364;SDS011;28498;54.400;18.566;2023-05-07T10:01:27;4.95;;;2.55;;
42364;SDS011;28498;54.400;18.566;2023-05-07T10:03:54;5.60;;;2.70;;
42364;SDS011;28498;54.400;18.566;2023-05-07T10:06:23;3.88;;;2.45;;
42364;SDS011;28498;54.400;18.566;2023-05-07T10:08:52;5.82;;;2.63;;
42364;SDS011;28498;54.400;18.566;2023-05-07T10:11:20;7.93;;;2.70;;
42364;SDS011;28498;54.400;18.566;2023-05-07T10:13:48;4.05;;;2.47;;
42364;SDS011;28498;54.400;18.566;2023-05-07T10:16:16;5.20;;;2.40;;
42364;SDS011;28498;54.400;18.566;2023-05-07T10:18:44;6.10;;;2.35;;
42364;SDS011;28498;54.400;18.566;2023-05-07T10:21:16;4.30;;;2.60;;
42364;SDS011;28498;54.400;18.566;2023-05-07T10:23:45;7.07;;;2.88;;
42364;SDS011;28498;54.400;18.566;2023-05-07T10:26:28;5.03;;;2.75;;
42364;SDS011;28498;54.400;18.566;2023-05-07T10:29:02;5.30;;;2.60;;
42364;SDS011;28498;54.400;18.566;2023-05-07T10:31:47;6.68;;;2.92;;
42364;SDS011;28498;54.400;18.566;2023-05-07T10:34:23;4.15;;;2.45;;
42364;SDS011;28498;54.400;18.566;2023-05-07T10:36:55;5.25;;;3.45;;
42364;SDS011;28498;54.400;18.566;2023-05-07T10:39:23;8.38;;;3.10;;
42364;SDS011;28498;54.400;18.566;2023-05-07T10:41:50;4.68;;;3.03;;
42364;SDS011;28498;54.400;18.566;2023-05-07T10:44:29;6.25;;;3.05;;
42364;SDS011;28498;54.400;18.566;2023-05-07T10:52:19;7.93;;;3.97;;
42364;SDS011;28498;54.400;18.566;2023-05-07T10:55:36;10.15;;;3.83;;
42364;SDS011;28498;54.400;18.566;2023-05-07T10:57:44;4.95;;;3.05;;
42364;SDS011;28498;54.400;18.566;2023-05-07T11:03:07;8.52;;;4.35;;
42364;SDS011;28498;54.400;18.566;2023-05-07T11:05:34;7.28;;;3.65;;
42364;SDS011;28498;54.400;18.566;2023-05-07T11:08:04;7.10;;;4.20;;
42364;SDS011;28498;54.400;18.566;2023-05-07T11:13:19;7.53;;;3.88;;
42364;SDS011;28498;54.400;18.566;2023-05-07T11:16:21;8.07;;;4.40;;
42364;SDS011;28498;54.400;18.566;2023-05-07T11:18:50;9.57;;;5.60;;
42364;SDS011;28498;54.400;18.566;2023-05-07T11:21:36;8.13;;;4.00;;
42364;SDS011;28498;54.400;18.566;2023-05-07T11:24:08;9.55;;;3.83;;
42364;SDS011;28498;54.400;18.566;2023-05-07T11:26:48;6.72;;;4.25;;
42364;SDS011;28498;54.400;18.566;2023-05-07T11:29:17;9.00;;;4.18;;
42364;SDS011;28498;54.400;18.566;2023-05-07T11:31:51;9.32;;;4.30;;
42364;SDS011;28498;54.400;18.566;2023-05-07T11:34:23;11.48;;;4.97;;
42364;SDS011;28498;54.400;18.566;2023-05-07T11:36:51;7.95;;;3.40;;
42364;SDS011;28498;54.400;18.566;2023-05-07T11:39:31;6.05;;;3.63;;
42364;SDS011;28498;54.400;18.566;2023-05-07T11:41:59;7.95;;;3.88;;
42364;SDS011;28498;54.400;18.566;2023-05-07T11:44:40;5.93;;;3.00;;
42364;SDS011;28498;54.400;18.566;2023-05-07T11:47:08;9.82;;;3.45;;
42364;SDS011;28498;54.400;18.566;2023-05-07T11:49:35;8.48;;;2.95;;
42364;SDS011;28498;54.400;18.566;2023-05-07T11:52:03;8.25;;;3.20;;
42364;SDS011;28498;54.400;18.566;2023-05-07T11:54:35;6.28;;;2.90;;
42364;SDS011;28498;54.400;18.566;2023-05-07T11:57:03;6.88;;;3.10;;
42364;SDS011;28498;54.400;18.566;2023-05-07T11:59:30;6.45;;;2.90;;
42364;SDS011;28498;54.400;18.566;2023-05-07T12:02:04;5.38;;;3.20;;
42364;SDS011;28498;54.400;18.566;2023-05-07T12:04:32;7.25;;;3.30;;
42364;SDS011;28498;54.400;18.566;2023-05-07T12:06:59;5.75;;;3.38;;
42364;SDS011;28498;54.400;18.566;2023-05-07T12:09:25;6.88;;;3.65;;
42364;SDS011;28498;54.400;18.566;2023-05-07T12:11:53;6.45;;;3.67;;
42364;SDS011;28498;54.400;18.566;2023-05-07T12:14:26;6.00;;;3.20;;
42364;SDS011;28498;54.400;18.566;2023-05-07T12:16:55;6.50;;;3.08;;
42364;SDS011;28498;54.400;18.566;2023-05-07T12:19:22;7.82;;;3.35;;
42364;SDS011;28498;54.400;18.566;2023-05-07T12:21:49;5.60;;;3.50;;
42364;SDS011;28498;54.400;18.566;2023-05-07T12:24:17;6.22;;;2.97;;
42364;SDS011;28498;54.400;18.566;2023-05-07T12:26:48;5.40;;;3.25;;
42364;SDS011;28498;54.400;18.566;2023-05-07T12:29:15;5.05;;;3.38;;
42364;SDS011;28498;54.400;18.566;2023-05-07T12:31:42;5.78;;;3.17;;
42364;SDS011;28498;54.400;18.566;2023-05-07T12:34:13;6.10;;;3.47;;
42364;SDS011;28498;54.400;18.566;2023-05-07T12:36:40;8.88;;;3.20;;
42364;SDS011;28498;54.400;18.566;2023-05-07T12:39:07;6.03;;;3.70;;
42364;SDS011;28498;54.400;18.566;2023-05-07T12:44:30;7.90;;;3.90;;
42364;SDS011;28498;54.400;18.566;2023-05-07T12:47:02;5.93;;;3.40;;
42364;SDS011;28498;54.400;18.566;2023-05-07T12:49:29;8.75;;;3.25;;
42364;SDS011;28498;54.400;18.566;2023-05-07T12:51:56;7.05;;;3.30;;
42364;SDS011;28498;54.400;18.566;2023-05-07T12:54:31;6.72;;;3.22;;
42364;SDS011;28498;54.400;18.566;2023-05-07T12:57:03;5.70;;;3.22;;
42364;SDS011;28498;54.400;18.566;2023-05-07T12:59:40;6.88;;;3.70;;
42364;SDS011;28498;54.400;18.566;2023-05-07T13:02:08;6.03;;;3.08;;
42364;SDS011;28498;54.400;18.566;2023-05-07T13:04:36;6.65;;;3.28;;
42364;SDS011;28498;54.400;18.566;2023-05-07T13:07:03;5.25;;;3.28;;
42364;SDS011;28498;54.400;18.566;2023-05-07T13:09:30;5.55;;;3.40;;
42364;SDS011;28498;54.400;18.566;2023-05-07T13:11:57;8.75;;;3.65;;
42364;SDS011;28498;54.400;18.566;2023-05-07T13:14:28;5.53;;;3.25;;
42364;SDS011;28498;54.400;18.566;2023-05-07T13:16:54;6.65;;;3.20;;
42364;SDS011;28498;54.400;18.566;2023-05-07T13:19:21;6.57;;;3.40;;
42364;SDS011;28498;54.400;18.566;2023-05-07T13:21:49;4.95;;;3.08;;
42364;SDS011;28498;54.400;18.566;2023-05-07T13:24:16;5.88;;;3.30;;
42364;SDS011;28498;54.400;18.566;2023-05-07T13:26:43;8.50;;;3.13;;
42364;SDS011;28498;54.400;18.566;2023-05-07T13:29:11;6.50;;;3.10;;
42364;SDS011;28498;54.400;18.566;2023-05-07T13:31:38;8.05;;;3.20;;
42364;SDS011;28498;54.400;18.566;2023-05-07T13:34:09;5.75;;;3.40;;
42364;SDS011;28498;54.400;18.566;2023-05-07T13:36:36;7.10;;;3.42;;
42364;SDS011;28498;54.400;18.566;2023-05-07T13:39:06;6.75;;;3.63;;
42364;SDS011;28498;54.400;18.566;2023-05-07T13:41:33;5.95;;;3.00;;
42364;SDS011;28498;54.400;18.566;2023-05-07T13:44:00;5.15;;;3.70;;
42364;SDS011;28498;54.400;18.566;2023-05-07T13:46:27;6.53;;;3.15;;
42364;SDS011;28498;54.400;18.566;2023-05-07T13:48:56;5.20;;;3.17;;
42364;SDS011;28498;54.400;18.566;2023-05-07T13:51:23;5.20;;;2.60;;
42364;SDS011;28498;54.400;18.566;2023-05-07T13:53:50;7.10;;;3.30;;
42364;SDS011;28498;54.400;18.566;2023-05-07T13:56:17;8.75;;;4.10;;
42364;SDS011;28498;54.400;18.566;2023-05-07T13:58:44;7.38;;;2.72;;
42364;SDS011;28498;54.400;18.566;2023-05-07T14:01:25;6.93;;;2.50;;
42364;SDS011;28498;54.400;18.566;2023-05-07T14:03:52;8.98;;;3.50;;
42364;SDS011;28498;54.400;18.566;2023-05-07T14:06:19;6.78;;;2.90;;
42364;SDS011;28498;54.400;18.566;2023-05-07T14:08:46;5.68;;;3.28;;
42364;SDS011;28498;54.400;18.566;2023-05-07T14:11:13;6.32;;;3.70;;
42364;SDS011;28498;54.400;18.566;2023-05-07T14:13:40;7.85;;;2.63;;
42364;SDS011;28498;54.400;18.566;2023-05-07T14:16:07;6.13;;;2.70;;
42364;SDS011;28498;54.400;18.566;2023-05-07T14:18:34;5.15;;;2.92;;
42364;SDS011;28498;54.400;18.566;2023-05-07T14:21:04;4.75;;;2.63;;
42364;SDS011;28498;54.400;18.566;2023-05-07T14:23:32;4.90;;;2.58;;
42364;SDS011;28498;54.400;18.566;2023-05-07T14:25:59;5.25;;;2.47;;
42364;SDS011;28498;54.400;18.566;2023-05-07T14:28:26;3.75;;;2.22;;
42364;SDS011;28498;54.400;18.566;2023-05-07T14:30:53;5.40;;;2.70;;
42364;SDS011;28498;54.400;18.566;2023-05-07T14:33:20;4.22;;;2.20;;
42364;SDS011;28498;54.400;18.566;2023-05-07T14:35:47;5.35;;;2.92;;
42364;SDS011;28498;54.400;18.566;2023-05-07T14:38:16;5.85;;;2.70;;
42364;SDS011;28498;54.400;18.566;2023-05-07T14:40:44;7.97;;;3.40;;
42364;SDS011;28498;54.400;18.566;2023-05-07T14:43:11;6.53;;;3.42;;
42364;SDS011;28498;54.400;18.566;2023-05-07T14:45:38;5.68;;;3.25;;
42364;SDS011;28498;54.400;18.566;2023-05-07T14:48:05;7.43;;;2.97;;
42364;SDS011;28498;54.400;18.566;2023-05-07T14:50:32;5.72;;;2.70;;
42364;SDS011;28498;54.400;18.566;2023-05-07T14:52:59;6.32;;;2.92;;
42364;SDS011;28498;54.400;18.566;2023-05-07T14:55:26;8.07;;;3.15;;
42364;SDS011;28498;54.400;18.566;2023-05-07T14:57:53;7.80;;;3.03;;
42364;SDS011;28498;54.400;18.566;2023-05-07T15:00:21;7.65;;;3.53;;
42364;SDS011;28498;54.400;18.566;2023-05-07T15:02:48;5.93;;;3.30;;
42364;SDS011;28498;54.400;18.566;2023-05-07T15:05:15;5.65;;;3.25;;